Авиационная погода в Уфе

Регион: 
Погода METAR: 
UWUU 171630Z 33005MPS CAVOK 10/M04 Q1020 R32L/0///60 NOSIG
Время наблюдения
2021-04-17T16:30:00Z
Температура C
10.0
Точка росы
-4.0
Направление ветра
330
Скорость ветра (узлы)
10
Метео видимость
6.21
Явления погоды
Условия полета
VFR
Аэропорт подробнее: